Time;durP1;ratioP1;P1;durP2;ratioP2;P2;SDS_P1;SDS_P2;PMS_P1;PMS_P2;Temp;Humidity;BMP_temperature;BMP_pressure;BME280_temperature;BME280_humidity;BME280_pressure;Samples;Min_cycle;Max_cycle;Signal;HPM_P1;HPM_P2
2022/05/29 00:01:35;;;;;;;7.47;4.13;;;12.90;99.90;;;;;;5064720;28;20041;-76
2022/05/29 00:04:02;;;;;;;6.90;3.90;;;12.90;99.90;;;;;;5066953;28;20070;-75
2022/05/29 00:06:38;;;;;;;7.28;4.18;;;12.80;99.90;;;;;;5055770;28;20063;-76
2022/05/29 00:09:06;;;;;;;7.38;3.80;;;12.80;99.90;;;;;;5060376;28;20040;-76
2022/05/29 00:11:37;;;;;;;7.15;3.83;;;12.80;99.90;;;;;;5043818;28;20053;-75
2022/05/29 00:14:04;;;;;;;4.95;2.95;;;12.90;99.90;;;;;;5033285;28;20417;-75
2022/05/29 00:16:32;;;;;;;3.97;2.83;;;12.80;99.90;;;;;;5033382;28;20029;-75
2022/05/29 00:19:00;;;;;;;4.65;2.80;;;12.80;99.90;;;;;;5033483;28;20120;-75
2022/05/29 00:21:29;;;;;;;4.30;2.70;;;12.90;99.90;;;;;;5033313;28;20100;-76
2022/05/29 00:23:56;;;;;;;5.60;2.78;;;12.80;99.90;;;;;;5042989;28;20060;-76
2022/05/29 00:26:24;;;;;;;4.32;2.60;;;12.80;99.90;;;;;;5061704;28;20041;-76
2022/05/29 00:28:52;;;;;;;3.70;2.60;;;12.90;99.90;;;;;;5063480;28;20044;-75
2022/05/29 00:31:20;;;;;;;6.10;2.80;;;12.80;99.90;;;;;;5062723;28;20040;-76
2022/05/29 00:33:47;;;;;;;6.07;2.85;;;12.80;99.90;;;;;;5063393;28;20048;-76
2022/05/29 00:36:16;;;;;;;4.35;2.95;;;12.90;99.90;;;;;;5053706;28;20033;-76
2022/05/29 00:38:46;;;;;;;4.07;2.90;;;12.90;99.90;;;;;;5064706;28;20037;-75
2022/05/29 00:41:19;;;;;;;5.50;2.85;;;12.80;99.90;;;;;;5073151;28;20091;-75
2022/05/29 00:43:48;;;;;;;4.82;3.33;;;12.90;99.90;;;;;;5072850;28;20055;-75
2022/05/29 00:46:17;;;;;;;5.57;3.53;;;12.90;99.90;;;;;;5071579;28;20056;-75
2022/05/29 00:48:44;;;;;;;6.28;3.70;;;12.90;99.90;;;;;;5071750;28;20484;-76
2022/05/29 00:51:13;;;;;;;5.15;3.42;;;12.90;99.90;;;;;;5062891;28;20489;-76
2022/05/29 00:53:41;;;;;;;6.90;3.90;;;12.90;99.90;;;;;;5058040;28;20055;-75
2022/05/29 00:56:11;;;;;;;5.25;3.50;;;12.90;99.90;;;;;;5052811;28;20045;-75
2022/05/29 00:58:39;;;;;;;7.22;3.63;;;12.90;99.90;;;;;;5052790;28;20040;-76
2022/05/29 01:01:08;;;;;;;8.45;3.58;;;12.90;99.90;;;;;;5053096;28;20489;-76
2022/05/29 01:03:37;;;;;;;4.45;3.75;;;12.80;99.90;;;;;;5053366;28;20705;-76
2022/05/29 01:06:04;;;;;;;5.35;4.18;;;12.80;99.90;;;;;;5066390;28;20040;-75
2022/05/29 01:08:34;;;;;;;8.18;3.95;;;12.90;99.90;;;;;;5038689;28;20095;-75
2022/05/29 01:11:24;;;;;;;4.32;3.42;;;12.90;99.90;;;;;;5037226;28;20068;-76
2022/05/29 01:14:06;;;;;;;5.65;4.03;;;12.90;99.90;;;;;;5045320;28;20049;-75
2022/05/29 01:16:46;;;;;;;6.43;3.75;;;12.90;99.90;;;;;;5058933;28;20032;-75
2022/05/29 01:19:41;;;;;;;7.97;5.07;;;12.90;99.90;;;;;;5065862;28;20037;-75
2022/05/29 01:22:27;;;;;;;4.43;3.67;;;12.90;99.90;;;;;;5068016;28;20491;-76
2022/05/29 01:25:13;;;;;;;8.63;5.32;;;12.80;99.90;;;;;;5075113;28;20055;-76
2022/05/29 01:28:06;;;;;;;13.73;8.85;;;12.80;99.90;;;;;;5070323;28;20048;-76
2022/05/29 01:30:39;;;;;;;6.35;3.95;;;12.80;99.90;;;;;;5057344;28;20033;-76
2022/05/29 01:33:13;;;;;;;6.20;3.63;;;12.80;99.90;;;;;;5058527;28;20052;-76
2022/05/29 01:35:48;;;;;;;6.03;3.88;;;12.80;99.90;;;;;;5061975;28;20063;-75
2022/05/29 01:38:23;;;;;;;4.65;3.53;;;12.80;99.90;;;;;;5055788;28;20043;-76
2022/05/29 01:40:56;;;;;;;4.07;3.33;;;12.80;99.90;;;;;;5056524;28;20469;-77
2022/05/29 01:43:31;;;;;;;6.03;4.18;;;12.70;99.90;;;;;;5055750;28;20386;-77
2022/05/29 01:46:06;;;;;;;4.90;3.30;;;12.70;99.90;;;;;;5064229;28;20504;-77
2022/05/29 01:48:47;;;;;;;3.40;2.83;;;12.60;99.90;;;;;;5058956;28;20037;-76
2022/05/29 01:51:18;;;;;;;6.85;2.95;;;12.60;99.90;;;;;;5064630;28;20068;-76
2022/05/29 01:53:49;;;;;;;5.40;3.55;;;12.70;99.90;;;;;;5055208;28;20456;-75
2022/05/29 01:56:22;;;;;;;4.10;3.20;;;12.70;99.90;;;;;;5055790;28;20064;-76
2022/05/29 01:58:56;;;;;;;4.15;3.15;;;12.60;99.90;;;;;;5055777;28;20045;-76
2022/05/29 02:01:29;;;;;;;6.65;3.03;;;12.60;99.90;;;;;;5065893;28;20040;-76
2022/05/29 02:03:59;;;;;;;5.72;3.72;;;12.60;99.90;;;;;;5054114;28;20057;-76
2022/05/29 02:07:47;;;;;;;5.63;3.55;;;12.60;99.90;;;;;;5055661;28;20519;-75
2022/05/29 02:09:24;;;;;;;5.05;3.60;;;12.70;99.90;;;;;;5035574;28;20124;-75
2022/05/29 02:11:55;;;;;;;5.15;3.97;;;12.70;99.90;;;;;;5035611;28;20047;-76
2022/05/29 02:14:31;;;;;;;5.55;4.07;;;12.70;99.90;;;;;;5034366;28;20079;-76
2022/05/29 02:17:03;;;;;;;4.88;4.38;;;12.70;99.90;;;;;;5034609;28;20045;-76
2022/05/29 02:19:34;;;;;;;7.95;6.15;;;12.60;99.90;;;;;;5035493;28;20052;-76
2022/05/29 02:22:06;;;;;;;8.98;6.82;;;12.50;99.90;;;;;;5050622;28;20044;-78
2022/05/29 02:24:38;;;;;;;6.55;5.95;;;12.50;99.90;;;;;;5056928;28;20409;-78
2022/05/29 02:27:11;;;;;;;9.18;6.90;;;12.40;99.90;;;;;;5065787;28;20063;-78
2022/05/29 02:29:42;;;;;;;9.25;7.78;;;12.40;99.90;;;;;;5058999;28;20045;-78
2022/05/29 02:32:18;;;;;;;12.02;8.43;;;12.30;99.90;;;;;;5063373;28;20051;-78
2022/05/29 02:34:48;;;;;;;;;;;12.20;99.90;;;;;;5062670;28;20049;-78
2022/05/29 02:37:20;;;;;;;10.38;7.80;;;12.20;99.90;;;;;;5059848;28;20396;-78
2022/05/29 02:39:56;;;;;;;9.15;8.25;;;12.20;99.90;;;;;;5058127;28;20092;-78
2022/05/29 02:42:33;;;;;;;10.35;8.43;;;12.20;99.90;;;;;;5056840;28;20048;-78
2022/05/29 02:45:13;;;;;;;12.32;8.43;;;12.20;99.90;;;;;;5064243;28;20037;-78
2022/05/29 02:47:47;;;;;;;9.50;7.93;;;12.30;99.90;;;;;;5037436;28;20037;-78
2022/05/29 02:50:35;;;;;;;11.52;8.57;;;12.30;99.90;;;;;;5065201;28;20037;-78
2022/05/29 02:53:09;;;;;;;13.23;9.38;;;12.20;99.90;;;;;;5065883;28;20037;-78
2022/05/29 02:55:37;;;;;;;12.38;9.90;;;12.20;99.90;;;;;;5061808;28;20045;-78
2022/05/29 02:58:08;;;;;;;11.70;9.35;;;12.20;99.90;;;;;;5077823;28;20040;-78
2022/05/29 03:00:47;;;;;;;11.73;9.27;;;12.20;99.90;;;;;;5077009;28;20143;-78
2022/05/29 03:03:29;;;;;;;10.65;8.85;;;12.30;99.90;;;;;;5074846;28;20550;-78
2022/05/29 03:06:12;;;;;;;11.13;8.80;;;12.20;99.90;;;;;;5057864;28;20041;-78
2022/05/29 03:08:58;;;;;;;12.85;9.15;;;12.30;99.90;;;;;;5060756;28;20115;-78
2022/05/29 03:11:37;;;;;;;12.85;9.90;;;12.30;99.90;;;;;;5066225;28;20052;-79
2022/05/29 03:14:09;;;;;;;12.13;9.45;;;12.20;99.90;;;;;;5074398;28;20044;-78
2022/05/29 03:16:46;;;;;;;12.43;8.88;;;12.20;99.90;;;;;;5080622;28;20085;-77
2022/05/29 03:19:27;;;;;;;10.95;9.38;;;12.30;99.90;;;;;;5082989;28;20053;-78
2022/05/29 03:22:04;;;;;;;11.18;8.75;;;12.30;99.90;;;;;;5066635;28;20052;-78
2022/05/29 03:24:41;;;;;;;11.90;8.95;;;12.30;99.90;;;;;;5042146;28;20152;-78
2022/05/29 03:27:14;;;;;;;11.85;10.02;;;12.30;99.90;;;;;;5055481;28;20052;-77
2022/05/29 03:29:45;;;;;;;10.88;9.30;;;12.30;99.90;;;;;;5055464;28;20045;-78
2022/05/29 03:32:15;;;;;;;12.30;9.15;;;12.30;99.90;;;;;;5057025;28;20048;-78
2022/05/29 03:34:42;;;;;;;13.35;9.50;;;12.30;99.90;;;;;;5057663;28;20041;-77
2022/05/29 03:37:10;;;;;;;11.43;8.90;;;12.30;99.90;;;;;;5057769;28;20048;-77
2022/05/29 03:39:37;;;;;;;11.80;9.75;;;12.20;99.90;;;;;;5059798;28;20480;-77
2022/05/29 03:42:06;;;;;;;14.38;9.90;;;12.30;99.90;;;;;;5056022;28;20055;-77
2022/05/29 03:44:33;;;;;;;12.93;9.27;;;12.30;99.90;;;;;;5056559;28;20439;-77
2022/05/29 03:47:01;;;;;;;11.57;9.02;;;12.40;99.90;;;;;;5057331;28;20049;-78
2022/05/29 03:49:29;;;;;;;10.82;9.15;;;12.50;99.90;;;;;;5057115;28;20041;-78
2022/05/29 03:51:57;;;;;;;13.32;8.35;;;12.60;99.90;;;;;;5056427;28;20583;-78
2022/05/29 03:54:25;;;;;;;12.35;8.68;;;12.50;99.90;;;;;;5055135;28;20053;-78
2022/05/29 03:56:52;;;;;;;10.43;8.90;;;12.50;99.90;;;;;;5060769;28;20045;-78
2022/05/29 03:59:19;;;;;;;11.90;8.65;;;12.40;99.90;;;;;;5068426;28;20408;-78
2022/05/29 04:01:47;;;;;;;10.07;7.80;;;12.40;99.90;;;;;;5063425;28;20408;-78
2022/05/29 04:04:14;;;;;;;11.27;7.88;;;12.40;99.90;;;;;;5059250;28;20049;-78
2022/05/29 04:06:43;;;;;;;9.95;7.70;;;12.50;99.90;;;;;;5066432;28;20063;-78
2022/05/29 04:12:05;;;;;;;7.97;6.90;;;12.60;99.90;;;;;;5071601;28;20064;-78
2022/05/29 04:14:33;;;;;;;12.48;7.32;;;12.70;99.90;;;;;;5067149;28;20060;-77
2022/05/29 04:17:01;;;;;;;9.10;6.82;;;12.70;99.90;;;;;;5068248;28;20052;-76
2022/05/29 04:19:29;;;;;;;8.52;6.32;;;12.80;99.90;;;;;;5072543;28;20053;-76
2022/05/29 04:21:58;;;;;;;9.77;6.43;;;12.80;99.90;;;;;;5059160;28;20037;-76
2022/05/29 04:24:26;;;;;;;8.43;5.82;;;12.80;99.90;;;;;;5061900;28;20056;-76
2022/05/29 04:26:53;;;;;;;7.38;5.72;;;12.90;99.90;;;;;;5068061;28;20101;-76
2022/05/29 04:29:21;;;;;;;6.78;5.70;;;13.00;99.90;;;;;;5064012;28;20044;-76
2022/05/29 04:34:34;;;;;;;7.75;5.90;;;13.00;99.90;;;;;;5052942;28;20112;-77
2022/05/29 04:37:03;;;;;;;9.52;6.00;;;13.00;99.90;;;;;;5052727;28;20044;-76
2022/05/29 04:39:34;;;;;;;7.78;5.80;;;13.10;99.90;;;;;;5057021;28;20051;-76
2022/05/29 04:42:01;;;;;;;13.27;6.78;;;13.10;99.90;;;;;;5056074;28;20048;-76
2022/05/29 04:44:30;;;;;;;10.32;6.78;;;13.20;99.90;;;;;;5057011;28;20419;-76
2022/05/29 04:46:59;;;;;;;7.88;6.30;;;13.40;99.90;;;;;;5066597;28;20043;-76
2022/05/29 04:49:27;;;;;;;12.77;9.65;;;13.40;99.90;;;;;;5057205;28;20049;-76
2022/05/29 04:51:54;;;;;;;13.45;10.80;;;13.40;99.90;;;;;;5063278;28;20040;-76
2022/05/29 04:54:23;;;;;;;15.80;9.63;;;13.40;99.90;;;;;;5056165;28;20041;-76
2022/05/29 04:56:51;;;;;;;14.50;8.55;;;13.50;99.90;;;;;;5063237;28;20135;-76
2022/05/29 04:59:18;;;;;;;12.75;8.93;;;13.50;99.90;;;;;;5070647;28;20040;-76
2022/05/29 05:01:46;;;;;;;9.77;8.20;;;13.50;99.90;;;;;;5065166;28;20040;-76
2022/05/29 05:04:13;;;;;;;11.70;8.80;;;13.50;99.90;;;;;;5062771;28;20080;-79
2022/05/29 05:06:40;;;;;;;11.05;8.35;;;13.60;99.90;;;;;;5061552;28;20452;-78
2022/05/29 05:09:08;;;;;;;11.98;8.50;;;13.70;99.90;;;;;;5062422;28;20389;-79
2022/05/29 05:11:37;;;;;;;13.23;8.65;;;13.80;99.90;;;;;;5062505;28;20064;-79
2022/05/29 05:14:04;;;;;;;9.02;8.00;;;13.90;99.90;;;;;;5063993;28;20504;-79
2022/05/29 05:16:31;;;;;;;8.48;6.95;;;14.00;99.90;;;;;;5066420;28;20037;-78
2022/05/29 05:18:59;;;;;;;10.43;7.03;;;14.10;99.90;;;;;;5068088;28;20037;-78
2022/05/29 05:21:26;;;;;;;10.80;6.78;;;14.20;99.90;;;;;;5073491;28;20037;-79
2022/05/29 05:23:53;;;;;;;9.27;6.90;;;14.20;99.90;;;;;;5075432;28;20041;-79
2022/05/29 05:26:21;;;;;;;11.25;7.40;;;14.20;99.90;;;;;;5065298;28;20060;-79
2022/05/29 05:28:50;;;;;;;11.52;6.72;;;14.30;99.90;;;;;;5071924;28;20140;-78
2022/05/29 05:31:18;;;;;;;10.75;6.80;;;14.30;99.90;;;;;;5067322;28;20063;-78
2022/05/29 05:33:45;;;;;;;12.48;6.93;;;14.30;99.90;;;;;;5065504;28;20060;-78
2022/05/29 05:36:14;;;;;;;9.38;7.93;;;14.30;99.90;;;;;;5065370;28;20041;-79
2022/05/29 05:38:41;;;;;;;9.63;7.55;;;14.30;99.90;;;;;;5067681;28;20567;-80
2022/05/29 05:41:10;;;;;;;9.30;7.43;;;14.30;99.90;;;;;;5049646;28;20401;-78
2022/05/29 05:43:39;;;;;;;10.20;6.32;;;14.40;99.90;;;;;;5054011;28;20049;-79
2022/05/29 05:46:09;;;;;;;8.77;7.13;;;14.40;99.90;;;;;;5068808;28;20033;-78
2022/05/29 05:48:38;;;;;;;11.18;7.93;;;14.50;99.90;;;;;;5055413;28;20516;-77
2022/05/29 05:51:05;;;;;;;11.60;7.10;;;14.60;99.90;;;;;;5067979;28;20098;-76
2022/05/29 05:53:33;;;;;;;9.43;7.30;;;14.70;99.90;;;;;;5062009;28;20044;-78
2022/05/29 05:56:05;;;;;;;11.15;8.20;;;14.70;99.90;;;;;;5060014;28;20045;-79
2022/05/29 05:58:33;;;;;;;12.70;8.43;;;14.70;99.90;;;;;;5063455;28;20037;-78
2022/05/29 06:01:06;;;;;;;14.50;10.02;;;14.60;99.90;;;;;;5064973;28;20041;-78
2022/05/29 06:03:35;;;;;;;10.43;8.07;;;14.50;99.90;;;;;;5061944;28;20496;-78
2022/05/29 06:06:05;;;;;;;9.60;7.95;;;14.50;99.90;;;;;;5065521;28;20032;-78
2022/05/29 06:08:33;;;;;;;14.38;9.73;;;14.60;99.90;;;;;;5058951;28;20048;-77
2022/05/29 06:11:01;;;;;;;9.35;7.93;;;14.70;99.90;;;;;;5063980;28;20045;-77
2022/05/29 06:13:29;;;;;;;8.90;7.43;;;14.60;99.90;;;;;;5054095;28;20042;-78
2022/05/29 06:16:00;;;;;;;11.13;8.18;;;14.70;99.90;;;;;;5059610;28;20043;-78
2022/05/29 06:18:28;;;;;;;10.63;7.70;;;14.60;99.90;;;;;;5062720;28;20041;-77
2022/05/29 06:21:02;;;;;;;10.70;7.88;;;14.70;99.90;;;;;;5063145;28;20045;-77
2022/05/29 06:23:30;;;;;;;8.23;6.60;;;14.70;99.90;;;;;;5063463;28;20068;-77
2022/05/29 06:25:57;;;;;;;8.27;7.18;;;14.90;99.90;;;;;;5039532;28;20060;-80
2022/05/29 06:28:25;;;;;;;9.80;6.90;;;14.80;99.90;;;;;;5042432;28;20440;-79
2022/05/29 06:30:52;;;;;;;9.10;6.55;;;15.00;99.90;;;;;;5064320;28;20039;-79
2022/05/29 06:33:19;;;;;;;10.05;8.27;;;15.00;99.90;;;;;;5060093;28;20045;-80
2022/05/29 06:35:47;;;;;;;8.18;6.70;;;15.10;99.90;;;;;;5060618;28;20037;-79
2022/05/29 06:38:16;;;;;;;9.98;7.80;;;15.20;99.90;;;;;;5070979;28;20040;-80
2022/05/29 06:40:49;;;;;;;8.50;6.57;;;15.20;99.90;;;;;;5059483;28;20056;-79
2022/05/29 06:43:17;;;;;;;10.52;7.43;;;15.20;99.90;;;;;;5058477;28;20115;-79
2022/05/29 06:45:44;;;;;;;8.18;7.00;;;15.20;99.90;;;;;;5059894;28;20045;-79
2022/05/29 06:48:11;;;;;;;8.52;7.10;;;15.30;99.90;;;;;;5061250;28;20049;-79
2022/05/29 06:50:39;;;;;;;8.75;5.75;;;15.40;99.90;;;;;;5061884;28;20037;-77
2022/05/29 06:53:07;;;;;;;37.20;10.88;;;15.50;99.90;;;;;;5061851;28;20056;-79
2022/05/29 06:55:36;;;;;;;14.40;7.35;;;15.60;99.90;;;;;;5062931;28;20048;-78
2022/05/29 06:58:03;;;;;;;8.50;6.93;;;15.60;99.90;;;;;;5059479;28;20056;-78
2022/05/29 07:08:47;;;;;;;7.05;4.60;;;15.80;99.90;;;;;;5073301;28;20032;-79
2022/05/29 07:11:18;;;;;;;5.93;4.40;;;15.80;99.90;;;;;;5071078;28;20069;-79
2022/05/29 07:13:46;;;;;;;6.85;4.60;;;16.00;99.90;;;;;;5065670;28;20036;-79
2022/05/29 07:16:15;;;;;;;8.32;4.75;;;16.30;99.90;;;;;;5062010;28;20036;-79
2022/05/29 07:18:42;;;;;;;7.00;4.20;;;16.50;99.90;;;;;;5066675;28;20044;-78
2022/05/29 07:21:09;;;;;;;6.50;4.45;;;16.60;99.90;;;;;;5068107;28;20064;-79
2022/05/29 07:23:37;;;;;;;6.85;5.30;;;16.60;99.90;;;;;;5070135;28;20044;-78
2022/05/29 07:26:05;;;;;;;13.82;8.80;;;16.60;99.90;;;;;;5060176;28;20037;-77
2022/05/29 07:28:34;;;;;;;9.75;5.80;;;16.60;99.90;;;;;;5055730;28;20071;-77
2022/05/29 07:31:03;;;;;;;7.97;4.50;;;16.60;99.90;;;;;;5055270;28;20049;-77
2022/05/29 07:33:30;;;;;;;8.82;4.95;;;16.50;99.90;;;;;;5063294;28;20041;-79
2022/05/29 07:35:59;;;;;;;9.23;7.72;;;16.50;99.90;;;;;;5065908;28;20052;-78
2022/05/29 07:38:28;;;;;;;7.90;6.20;;;16.60;99.90;;;;;;5057284;28;20048;-79
2022/05/29 07:40:56;;;;;;;9.50;5.00;;;16.50;99.90;;;;;;5062148;28;20045;-78
2022/05/29 07:43:22;;;;;;;7.28;4.95;;;16.30;99.90;;;;;;5061035;28;20420;-77
2022/05/29 07:45:54;;;;;;;6.22;4.50;;;16.30;99.90;;;;;;5069701;28;20469;-77
2022/05/29 07:48:24;;;;;;;10.38;5.28;;;16.30;99.90;;;;;;5062438;28;20040;-78
2022/05/29 07:50:52;;;;;;;8.02;4.95;;;16.50;99.90;;;;;;5057875;28;20048;-78
2022/05/29 07:53:20;;;;;;;3.90;2.20;;;16.50;99.90;;;;;;5062522;28;20055;-77
2022/05/29 07:55:47;;;;;;;9.10;2.78;;;16.30;99.90;;;;;;5066394;28;20029;-77
2022/05/29 07:58:17;;;;;;;4.45;2.22;;;15.90;99.90;;;;;;5056141;28;20412;-77
2022/05/29 08:00:44;;;;;;;8.10;2.90;;;15.90;99.90;;;;;;5054565;28;20060;-77
2022/05/29 08:03:13;;;;;;;9.10;3.00;;;15.90;99.90;;;;;;5055323;28;20076;-78
2022/05/29 08:05:41;;;;;;;4.57;2.25;;;16.30;99.90;;;;;;5057281;28;20067;-78
2022/05/29 08:08:11;;;;;;;6.88;2.88;;;16.80;99.90;;;;;;5056810;28;20064;-78
2022/05/29 08:10:40;;;;;;;6.30;2.28;;;17.20;99.90;;;;;;5054632;28;20045;-78
2022/05/29 08:13:08;;;;;;;3.78;2.03;;;17.40;99.90;;;;;;5057018;28;20037;-78
2022/05/29 08:15:36;;;;;;;5.82;2.40;;;16.80;99.90;;;;;;5056554;28;20041;-78
2022/05/29 08:18:03;;;;;;;7.30;1.92;;;17.00;99.90;;;;;;5047338;28;20053;-78
2022/05/29 08:20:36;;;;;;;4.97;2.30;;;17.10;99.90;;;;;;5052727;28;20037;-78
2022/05/29 08:23:04;;;;;;;6.53;2.20;;;17.80;99.90;;;;;;5056209;28;20041;-78
2022/05/29 08:31:01;;;;;;;9.25;2.55;;;17.80;99.90;;;;;;5052157;28;20049;-78
2022/05/29 08:33:30;;;;;;;9.32;2.45;;;17.50;99.90;;;;;;5056481;28;20048;-78
2022/05/29 08:36:01;;;;;;;6.53;2.25;;;17.50;99.90;;;;;;5057787;28;20408;-78
2022/05/29 08:38:31;;;;;;;11.07;3.33;;;17.10;99.90;;;;;;5043621;28;20540;-78
2022/05/29 08:41:02;;;;;;;4.95;2.65;;;16.80;99.90;;;;;;5048301;28;20036;-78
2022/05/29 08:43:35;;;;;;;6.13;2.33;;;17.10;99.90;;;;;;5045719;28;20463;-77
2022/05/29 08:46:08;;;;;;;6.55;2.17;;;17.50;99.90;;;;;;5054028;28;20079;-78
2022/05/29 08:48:36;;;;;;;5.40;2.38;;;17.80;99.90;;;;;;5055044;28;20049;-80
2022/05/29 08:51:28;;;;;;;7.03;3.03;;;17.80;99.90;;;;;;5055090;28;20097;-78
2022/05/29 08:54:09;;;;;;;4.32;2.60;;;18.00;99.90;;;;;;5046190;28;20056;-77
2022/05/29 08:56:44;;;;;;;6.03;2.50;;;18.00;99.90;;;;;;5061016;28;20047;-78
2022/05/29 08:59:20;;;;;;;4.65;2.17;;;18.10;99.90;;;;;;5066080;28;20036;-78
2022/05/29 09:01:52;;;;;;;;;;;18.60;99.90;;;;;;5054805;28;20049;-78
2022/05/29 09:04:29;;;;;;;5.45;2.20;;;18.90;99.90;;;;;;5055724;28;19928;-78
2022/05/29 09:07:00;;;;;;;4.97;2.42;;;19.00;99.90;;;;;;5052950;28;20404;-78
2022/05/29 09:09:35;;;;;;;5.10;2.15;;;19.10;99.90;;;;;;5053766;28;20055;-79
2022/05/29 09:12:07;;;;;;;4.20;2.42;;;18.50;99.90;;;;;;5053923;28;20055;-78
2022/05/29 09:14:42;;;;;;;4.00;2.35;;;18.20;99.90;;;;;;5054562;28;20093;-78
2022/05/29 09:17:13;;;;;;;5.80;2.80;;;18.40;99.90;;;;;;5056393;28;20468;-79
2022/05/29 09:19:47;;;;;;;6.63;2.60;;;18.30;99.90;;;;;;5059015;28;20045;-78
2022/05/29 09:22:22;;;;;;;5.47;2.17;;;18.30;99.90;;;;;;5056633;28;20428;-78
2022/05/29 09:25:01;;;;;;;5.13;3.00;;;18.00;99.90;;;;;;5058472;28;20041;-79
2022/05/29 09:27:29;;;;;;;6.35;2.60;;;17.90;99.90;;;;;;5060155;28;20041;-79
2022/05/29 09:29:56;;;;;;;6.45;2.97;;;17.50;99.90;;;;;;5060024;28;20488;-78
2022/05/29 09:32:26;;;;;;;3.75;2.10;;;17.60;99.90;;;;;;5058640;28;20497;-78
2022/05/29 09:35:01;;;;;;;4.28;2.30;;;18.00;99.90;;;;;;5059277;28;20049;-78
2022/05/29 09:37:40;;;;;;;4.93;2.55;;;18.60;99.90;;;;;;5059424;28;20041;-78
2022/05/29 09:40:15;;;;;;;9.70;2.53;;;19.50;99.90;;;;;;5058481;28;20048;-78
2022/05/29 09:42:44;;;;;;;5.25;2.33;;;19.50;99.90;;;;;;5058785;28;20041;-78
2022/05/29 09:45:15;;;;;;;5.68;2.72;;;19.30;99.90;;;;;;5059366;28;20120;-78
2022/05/29 09:50:47;;;;;;;7.32;2.80;;;19.20;99.90;;;;;;5018011;28;20041;-79
2022/05/29 09:53:19;;;;;;;8.35;2.55;;;18.90;99.90;;;;;;5047651;28;20057;-78
2022/05/29 09:55:57;;;;;;;5.47;3.33;;;19.00;99.90;;;;;;5060871;28;20051;-78
2022/05/29 09:58:34;;;;;;;6.25;2.70;;;19.40;99.90;;;;;;5066603;28;20040;-79
2022/05/29 10:01:05;;;;;;;7.40;2.78;;;19.70;99.90;;;;;;5065857;28;20127;-79
2022/05/29 10:03:44;;;;;;;6.00;2.90;;;19.70;99.90;;;;;;5058602;28;20048;-79
2022/05/29 10:06:18;;;;;;;6.30;2.90;;;19.60;99.90;;;;;;5073265;28;20037;-79
2022/05/29 10:08:47;;;;;;;5.25;2.60;;;19.40;99.90;;;;;;5079351;28;20051;-78
2022/05/29 10:11:21;;;;;;;4.63;2.70;;;19.40;99.90;;;;;;5058364;28;20045;-79
2022/05/29 10:13:51;;;;;;;4.10;2.63;;;19.10;99.90;;;;;;5059942;28;20120;-79
2022/05/29 10:16:35;;;;;;;6.55;3.00;;;19.30;99.90;;;;;;5059027;28;20041;-79
2022/05/29 10:19:04;;;;;;;4.85;3.03;;;19.10;99.90;;;;;;5059716;28;20041;-78
2022/05/29 10:21:35;;;;;;;8.13;3.67;;;18.70;99.90;;;;;;5060247;28;20045;-79
2022/05/29 10:24:20;;;;;;;6.63;3.05;;;18.90;99.90;;;;;;5060609;28;20036;-79
2022/05/29 10:26:50;;;;;;;9.35;3.67;;;19.10;99.90;;;;;;5059452;28;20076;-79
2022/05/29 10:29:20;;;;;;;5.85;3.65;;;19.20;99.90;;;;;;5059309;28;20037;-78
2022/05/29 10:31:50;;;;;;;6.07;3.20;;;19.40;99.90;;;;;;5058387;28;20040;-79
2022/05/29 10:34:26;;;;;;;9.07;3.50;;;20.00;99.90;;;;;;5058500;28;20041;-78
2022/05/29 10:36:53;;;;;;;5.63;2.88;;;19.70;99.90;;;;;;5058410;28;20052;-78
2022/05/29 10:39:24;;;;;;;9.63;4.13;;;19.60;99.90;;;;;;5057387;28;20029;-78
2022/05/29 10:41:53;;;;;;;10.40;3.78;;;19.80;99.90;;;;;;5059558;28;20055;-78
2022/05/29 10:44:42;;;;;;;9.52;3.95;;;20.10;99.90;;;;;;5063677;28;20056;-78
2022/05/29 10:47:22;;;;;;;9.82;4.07;;;20.60;99.90;;;;;;5061603;28;20075;-78
2022/05/29 10:49:59;;;;;;;6.72;3.83;;;20.90;99.90;;;;;;5058600;28;20033;-79
2022/05/29 10:52:45;;;;;;;6.68;4.18;;;20.90;99.90;;;;;;5060026;28;20369;-79
2022/05/29 10:55:36;;;;;;;4.97;3.65;;;20.90;99.90;;;;;;5058879;28;20041;-79
2022/05/29 10:58:32;;;;;;;6.00;3.88;;;20.70;99.90;;;;;;5058254;28;20408;-79
2022/05/29 11:03:17;;;;;;;7.47;3.45;;;20.90;99.90;;;;;;5057143;28;20396;-78
2022/05/29 11:04:14;;;;;;;6.40;3.50;;;20.70;99.90;;;;;;5088641;22;20041;-76
2022/05/29 11:07:00;;;;;;;8.32;4.10;;;20.50;99.90;;;;;;5077618;28;20037;-77
2022/05/29 11:09:53;;;;;;;6.28;3.40;;;20.10;99.90;;;;;;5070362;28;20045;-77
2022/05/29 11:12:32;;;;;;;7.95;4.63;;;20.30;99.90;;;;;;5074566;28;20045;-76
2022/05/29 11:15:22;;;;;;;10.75;4.38;;;19.80;99.90;;;;;;5019859;28;20468;-77
2022/05/29 11:18:02;;;;;;;7.55;5.43;;;19.60;99.90;;;;;;5037810;28;20065;-77
2022/05/29 11:20:46;;;;;;;8.20;4.97;;;19.10;99.90;;;;;;5037734;28;20041;-76
2022/05/29 11:23:28;;;;;;;6.90;4.70;;;19.50;99.90;;;;;;5039478;28;20132;-76
2022/05/29 11:26:04;;;;;;;6.03;4.72;;;19.80;99.90;;;;;;5046061;28;20041;-76
2022/05/29 11:29:01;;;;;;;8.80;5.57;;;19.60;99.90;;;;;;5046426;28;20068;-76
2022/05/29 11:31:44;;;;;;;7.30;6.28;;;19.90;99.90;;;;;;5044648;28;20061;-77
2022/05/29 11:34:27;;;;;;;6.15;5.10;;;20.20;99.90;;;;;;5047140;28;20052;-76
2022/05/29 11:37:34;;;;;;;7.57;5.85;;;20.30;99.90;;;;;;5043676;28;20064;-76
2022/05/29 11:40:07;;;;;;;9.85;6.90;;;20.30;99.90;;;;;;5028996;28;20568;-76
2022/05/29 11:42:41;;;;;;;8.98;5.45;;;20.60;99.90;;;;;;5049198;28;20049;-75
2022/05/29 11:45:17;;;;;;;9.48;5.72;;;20.70;99.90;;;;;;5030275;28;20172;-76
2022/05/29 11:53:30;;;;;;;18.25;12.85;;;20.80;99.90;;;;;;5025322;28;20053;-78
2022/05/29 11:56:01;;;;;;;9.35;6.30;;;20.90;99.90;;;;;;5042321;28;20052;-76
2022/05/29 11:58:33;;;;;;;8.52;5.72;;;20.90;99.90;;;;;;5044387;28;20064;-76
2022/05/29 12:01:07;;;;;;;8.68;6.35;;;20.70;99.90;;;;;;5062792;28;20047;-77
2022/05/29 12:03:43;;;;;;;9.68;6.82;;;20.70;99.90;;;;;;5060417;28;20140;-76
2022/05/29 12:06:12;;;;;;;;;;;20.70;99.90;;;;;;5046897;28;20045;-77
2022/05/29 12:08:48;;;;;;;10.77;6.80;;;20.90;99.90;;;;;;5056121;28;20360;-76
2022/05/29 12:11:36;;;;;;;9.02;6.63;;;20.80;99.90;;;;;;5065398;28;20095;-76
2022/05/29 12:14:09;;;;;;;8.10;5.82;;;20.70;99.90;;;;;;5058495;28;20503;-77
2022/05/29 12:16:41;;;;;;;7.93;7.00;;;20.60;99.90;;;;;;5038364;28;20516;-76
2022/05/29 12:19:14;;;;;;;8.30;7.05;;;20.80;99.90;;;;;;5038673;28;20415;-76
2022/05/29 12:21:47;;;;;;;9.55;8.02;;;21.20;99.90;;;;;;5055263;28;20041;-76
2022/05/29 12:24:20;;;;;;;8.38;6.78;;;21.40;99.90;;;;;;5055506;28;20128;-77
2022/05/29 12:26:53;;;;;;;11.38;7.80;;;21.10;99.90;;;;;;5051553;28;20045;-76
2022/05/29 12:29:26;;;;;;;8.18;7.28;;;20.90;99.90;;;;;;5055420;28;20041;-76
2022/05/29 12:32:00;;;;;;;10.00;6.60;;;21.00;99.90;;;;;;5051767;28;20051;-76
2022/05/29 12:34:31;;;;;;;12.20;7.05;;;21.10;99.90;;;;;;5055099;28;20049;-77
2022/05/29 12:37:25;;;;;;;8.15;7.35;;;21.20;99.90;;;;;;5053133;28;20049;-76
2022/05/29 12:40:25;;;;;;;10.02;7.07;;;21.10;99.90;;;;;;5050572;28;20044;-77
2022/05/29 12:43:33;;;;;;;8.98;7.32;;;20.90;99.90;;;;;;5019144;28;20061;-77
2022/05/29 12:46:13;;;;;;;9.25;7.45;;;20.90;99.90;;;;;;5023251;28;20080;-77
2022/05/29 12:49:06;;;;;;;11.32;7.90;;;21.00;99.90;;;;;;5055203;28;20045;-75
2022/05/29 12:51:52;;;;;;;12.10;8.65;;;21.30;99.90;;;;;;5005608;28;20064;-76
2022/05/29 12:54:54;;;;;;;14.43;8.23;;;21.20;99.90;;;;;;5019964;28;20041;-76
2022/05/29 12:58:02;;;;;;;10.43;7.03;;;20.70;99.90;;;;;;5056698;28;20047;-77
2022/05/29 13:00:58;;;;;;;11.43;7.20;;;20.90;99.90;;;;;;5041930;28;20049;-76
2022/05/29 13:03:55;;;;;;;9.45;7.70;;;21.20;99.90;;;;;;5059278;28;20080;-77
2022/05/29 13:07:01;;;;;;;8.93;7.47;;;21.40;99.90;;;;;;5066582;28;20068;-78
2022/05/29 13:10:11;;;;;;;10.00;8.20;;;21.40;99.90;;;;;;5075997;28;20037;-77
2022/05/29 13:12:44;;;;;;;12.40;8.25;;;21.40;99.90;;;;;;4969343;29;20055;-77
2022/05/29 13:15:22;;;;;;;11.52;8.23;;;21.10;99.90;;;;;;5044964;28;20060;-78
2022/05/29 13:18:01;;;;;;;10.52;8.50;;;21.00;99.90;;;;;;5061722;28;20080;-76
2022/05/29 13:20:29;;;;;;;10.75;9.32;;;21.10;99.90;;;;;;5035395;28;20067;-76
2022/05/29 13:23:01;;;;;;;14.48;10.60;;;21.20;99.90;;;;;;5059652;28;20045;-77
2022/05/29 13:25:31;;;;;;;16.30;9.05;;;21.40;99.90;;;;;;5061420;28;20053;-77
2022/05/29 13:28:00;;;;;;;10.73;9.02;;;21.10;99.90;;;;;;5044380;28;20052;-76
2022/05/29 13:31:12;;;;;;;11.00;9.43;;;20.50;99.90;;;;;;5061659;28;20144;-76
2022/05/29 13:33:56;;;;;;;11.23;9.02;;;20.40;99.90;;;;;;5060193;28;20033;-76
2022/05/29 13:37:03;;;;;;;13.98;9.63;;;20.50;99.90;;;;;;5053723;28;20419;-76
2022/05/29 13:39:35;;;;;;;;;;;20.90;99.90;;;;;;5068228;28;20041;-77
2022/05/29 13:42:07;;;;;;;14.43;10.38;;;20.30;99.90;;;;;;5063073;28;19927;-77
2022/05/29 13:44:36;;;;;;;10.70;9.70;;;20.30;99.90;;;;;;5054083;28;20140;-76
2022/05/29 13:47:43;;;;;;;15.73;10.65;;;20.60;99.90;;;;;;5070295;28;20041;-77